createdAt,value
2018-06-09T00:00:36.727Z,62.64
2018-06-09T00:03:06.088Z,62.13
2018-06-09T00:05:34.755Z,62.52
2018-06-09T00:08:04.125Z,62.76
2018-06-09T00:10:33.398Z,63.79
2018-06-09T00:13:02.625Z,63.80
2018-06-09T00:15:31.952Z,63.44
2018-06-09T00:18:01.309Z,64.54
2018-06-09T00:20:30.519Z,63.85
2018-06-09T00:22:59.885Z,64.42
2018-06-09T00:25:29.090Z,65.10
2018-06-09T00:27:58.280Z,65.31
2018-06-09T00:30:26.593Z,65.40
2018-06-09T00:32:55.824Z,65.08
2018-06-09T00:35:24.168Z,66.16
2018-06-09T00:37:53.384Z,66.38
2018-06-09T00:40:22.579Z,66.45
2018-06-09T00:42:51.793Z,67.35
2018-06-09T00:45:20.960Z,67.52
2018-06-09T00:47:50.288Z,67.33
2018-06-09T00:50:19.497Z,68.23
2018-06-09T00:52:48.708Z,67.91
2018-06-09T00:55:17.032Z,68.21
2018-06-09T00:57:46.344Z,69.02
2018-06-09T01:00:14.659Z,67.71
2018-06-09T01:02:42.979Z,68.69
2018-06-09T01:05:12.184Z,68.37
2018-06-09T01:07:41.452Z,68.98
2018-06-09T01:10:10.769Z,68.98
2018-06-09T01:12:40.121Z,70.37
2018-06-09T01:15:09.305Z,68.52
2018-06-09T01:17:38.660Z,69.53
2018-06-09T01:20:07.969Z,69.66
2018-06-09T01:22:36.274Z,69.00
2018-06-09T01:25:05.724Z,68.34
2018-06-09T01:27:34.059Z,69.79
2018-06-09T01:30:02.386Z,70.37
2018-06-09T01:32:30.711Z,71.05
2018-06-09T01:34:59.021Z,70.69
2018-06-09T01:37:28.348Z,70.56
2018-06-09T01:39:56.661Z,72.13
2018-06-09T01:42:24.972Z,72.51
2018-06-09T01:44:53.288Z,72.27
2018-06-09T01:47:21.605Z,72.14
2018-06-09T01:49:50.916Z,73.09
2018-06-09T01:52:20.238Z,72.93
2018-06-09T01:54:49.548Z,72.70
2018-06-09T01:57:18.873Z,73.18
2018-06-09T01:59:48.227Z,72.90
2018-06-09T02:02:16.580Z,71.96
2018-06-09T02:04:45.773Z,72.14
2018-06-09T02:07:14.091Z,72.52
2018-06-09T02:09:43.422Z,74.57
2018-06-09T02:12:12.969Z,73.30
2018-06-09T02:14:42.180Z,74.49
2018-06-09T02:17:10.496Z,74.50
2018-06-09T02:19:38.817Z,73.80
2018-06-09T02:22:07.132Z,73.56
2018-06-09T02:24:36.488Z,73.54
2018-06-09T02:27:04.881Z,73.03
2018-06-09T02:29:34.278Z,73.10
2018-06-09T02:32:02.713Z,73.72
2018-06-09T02:34:31.025Z,73.23
2018-06-09T02:36:59.332Z,72.86
2018-06-09T02:39:27.642Z,73.75
2018-06-09T02:41:56.837Z,73.73
2018-06-09T02:44:26.188Z,73.66
2018-06-09T02:46:54.555Z,73.98
2018-06-09T02:49:23.745Z,74.30
2018-06-09T02:51:52.098Z,74.81
2018-06-09T02:54:21.299Z,74.62
2018-06-09T02:56:49.641Z,75.63
2018-06-09T02:59:18.884Z,74.60
2018-06-09T03:01:47.197Z,75.14
2018-06-09T03:04:16.541Z,74.51
2018-06-09T03:06:45.893Z,75.04
2018-06-09T03:09:15.054Z,75.82
2018-06-09T03:11:44.269Z,75.43
2018-06-09T03:14:13.449Z,75.76
2018-06-09T03:16:42.672Z,75.71
2018-06-09T03:19:10.986Z,76.15
2018-06-09T03:21:40.353Z,75.75
2018-06-09T03:24:09.680Z,77.10
2018-06-09T03:26:39.003Z,77.48
2018-06-09T03:29:07.451Z,77.95
2018-06-09T03:31:36.637Z,77.47
2018-06-09T03:34:05.834Z,76.91
2018-06-09T03:36:35.157Z,77.17
2018-06-09T03:39:04.400Z,77.13
2018-06-09T03:41:33.587Z,77.50
2018-06-09T03:44:01.928Z,79.01
2018-06-09T03:46:30.286Z,77.80
2018-06-09T03:48:58.629Z,77.06
2018-06-09T03:51:27.980Z,77.26
2018-06-09T03:53:56.359Z,76.93
2018-06-09T03:56:24.713Z,77.39
2018-06-09T03:58:53.072Z,77.72
2018-06-09T04:01:21.377Z,76.47
2018-06-09T04:03:49.725Z,76.00
2018-06-09T04:06:19.098Z,75.15
2018-06-09T04:08:47.455Z,75.96
2018-06-09T04:11:16.789Z,75.08
2018-06-09T04:13:45.153Z,74.71
2018-06-09T04:16:14.348Z,74.69
2018-06-09T04:18:42.676Z,74.63
2018-06-09T04:21:11.997Z,75.99
2018-06-09T04:23:41.304Z,74.44
2018-06-09T04:26:09.609Z,74.21
2018-06-09T04:28:38.616Z,74.58
2018-06-09T04:31:07.982Z,75.14
2018-06-09T04:33:37.311Z,75.59
2018-06-09T04:36:06.502Z,74.91
2018-06-09T04:38:34.821Z,75.44
2018-06-09T04:41:03.140Z,73.18
2018-06-09T04:43:31.468Z,72.60
2018-06-09T04:45:59.795Z,72.01
2018-06-09T04:48:28.142Z,72.97
2018-06-09T04:50:56.453Z,69.12
2018-06-09T04:53:24.773Z,71.70
2018-06-09T04:55:53.086Z,71.61
2018-06-09T04:58:21.400Z,71.78
2018-06-09T05:00:49.714Z,72.92
2018-06-09T05:03:18.054Z,70.41
2018-06-09T05:05:46.384Z,70.28
2018-06-09T05:08:14.704Z,70.52
2018-06-09T05:10:43.041Z,71.94
2018-06-09T05:13:11.408Z,68.88
2018-06-09T05:15:39.720Z,70.79
2018-06-09T05:18:08.045Z,70.02
2018-06-09T05:20:36.379Z,70.43
2018-06-09T05:23:04.729Z,68.68
2018-06-09T05:25:33.040Z,69.71
2018-06-09T05:28:01.928Z,68.10
2018-06-09T05:30:31.075Z,66.19
2018-06-09T05:32:59.402Z,65.19
2018-06-09T05:35:27.721Z,68.25
2018-06-09T05:37:56.085Z,66.77
2018-06-09T05:40:24.408Z,64.29
2018-06-09T05:42:52.738Z,65.50
2018-06-09T05:45:21.050Z,64.66
2018-06-09T05:47:49.360Z,64.87
2018-06-09T05:50:17.715Z,62.03
2018-06-09T05:52:46.043Z,60.58
2018-06-09T05:55:14.353Z,61.90
2018-06-09T05:57:42.668Z,58.83
2018-06-09T06:00:12.023Z,62.01
2018-06-09T06:02:41.218Z,61.12
2018-06-09T06:05:10.544Z,63.00
2018-06-09T06:07:38.856Z,60.40
2018-06-09T06:10:08.066Z,59.29
2018-06-09T06:12:37.455Z,60.10
2018-06-09T06:15:05.785Z,58.94
2018-06-09T06:17:34.097Z,59.57
2018-06-09T06:20:02.406Z,59.78
2018-06-09T06:22:30.724Z,57.22
2018-06-09T06:24:59.047Z,54.89
2018-06-09T06:27:27.360Z,57.45
2018-06-09T06:29:55.768Z,54.30
2018-06-09T06:34:51.462Z,55.54
2018-06-09T06:37:19.866Z,53.91
2018-06-09T06:39:48.215Z,54.19
2018-06-09T06:42:25.079Z,56.42
2018-06-09T06:44:53.825Z,53.39
2018-06-09T06:47:22.262Z,52.10
2018-06-09T06:49:50.578Z,51.78
2018-06-09T06:52:18.892Z,50.83
2018-06-09T06:54:48.227Z,48.59
2018-06-09T06:57:17.329Z,48.75
2018-06-09T06:59:45.649Z,49.00
2018-06-09T07:02:14.025Z,47.41
2018-06-09T07:04:42.342Z,45.66
2018-06-09T07:07:10.812Z,47.74
2018-06-09T07:09:39.137Z,49.02
2018-06-09T07:12:08.249Z,48.67
2018-06-09T07:14:36.569Z,49.46
2018-06-09T07:17:04.896Z,50.08
2018-06-09T07:19:33.214Z,50.17
2018-06-09T07:22:01.572Z,47.11
2018-06-09T07:24:29.885Z,47.78
2018-06-09T07:26:58.248Z,47.70
2018-06-09T07:29:26.665Z,46.75
2018-06-09T07:31:55.853Z,47.47
2018-06-09T07:34:24.174Z,45.69
2018-06-09T07:36:52.528Z,45.41
2018-06-09T07:39:21.633Z,46.29
2018-06-09T07:41:50.885Z,47.70
2018-06-09T07:44:19.200Z,44.35
2018-06-09T07:46:47.509Z,43.33
2018-06-09T07:49:15.826Z,45.47
2018-06-09T07:51:44.180Z,46.39
2018-06-09T07:54:12.549Z,44.64
2018-06-09T07:56:40.905Z,43.56
2018-06-09T07:59:09.213Z,42.13
2018-06-09T08:01:37.558Z,41.60
2018-06-09T08:04:05.870Z,42.96
2018-06-09T08:06:34.212Z,42.49
2018-06-09T08:09:02.544Z,42.63
2018-06-09T08:11:30.837Z,44.47
2018-06-09T08:13:59.223Z,43.03
2018-06-09T08:16:28.547Z,44.65
2018-06-09T08:18:56.850Z,44.39
2018-06-09T08:21:25.161Z,42.30
2018-06-09T08:23:53.497Z,40.94
2018-06-09T08:26:22.688Z,40.77
2018-06-09T08:28:51.024Z,40.68
2018-06-09T08:31:20.205Z,44.44
2018-06-09T08:33:48.507Z,41.74
2018-06-09T08:36:16.817Z,41.61
2018-06-09T08:38:45.148Z,42.84
2018-06-09T08:41:13.465Z,40.44
2018-06-09T08:43:41.761Z,40.71
2018-06-09T08:46:10.063Z,41.70
2018-06-09T08:48:40.377Z,38.33
2018-06-09T08:51:08.677Z,38.38
2018-06-09T08:53:36.977Z,37.09
2018-06-09T08:56:05.286Z,38.73
2018-06-09T08:58:33.600Z,36.32
2018-06-09T09:01:01.905Z,38.09
2018-06-09T09:03:30.212Z,39.15
2018-06-09T09:05:58.528Z,38.40
2018-06-09T09:08:26.864Z,37.14
2018-06-09T09:10:55.172Z,35.45
2018-06-09T09:13:23.657Z,33.30
2018-06-09T09:15:51.957Z,33.88
2018-06-09T09:18:20.264Z,36.40
2018-06-09T09:20:48.583Z,37.54
2018-06-09T09:23:17.783Z,37.10
2018-06-09T09:25:46.085Z,35.78
2018-06-09T09:28:14.388Z,37.51
2018-06-09T09:30:42.730Z,35.87
2018-06-09T09:33:11.065Z,38.22
2018-06-09T09:35:39.412Z,35.53
2018-06-09T09:38:08.720Z,35.62
2018-06-09T09:40:37.033Z,35.13
2018-06-09T09:43:06.341Z,34.96
2018-06-09T09:45:34.654Z,33.74
2018-06-09T09:48:03.911Z,32.99
2018-06-09T09:50:32.224Z,32.35
2018-06-09T09:53:01.392Z,34.20
2018-06-09T09:55:29.698Z,34.50
2018-06-09T09:58:00.140Z,34.93
2018-06-09T10:00:33.713Z,34.73
2018-06-09T10:03:03.065Z,35.78
2018-06-09T10:05:32.377Z,33.95
2018-06-09T10:08:01.597Z,35.79
2018-06-09T10:10:30.974Z,35.12
2018-06-09T10:12:59.277Z,33.64
2018-06-09T10:15:27.614Z,35.49
2018-06-09T10:17:56.925Z,37.91
2018-06-09T10:20:26.125Z,32.06
2018-06-09T10:22:55.248Z,32.21
2018-06-09T10:25:24.509Z,32.17
2018-06-09T10:27:53.736Z,33.04
2018-06-09T10:30:23.030Z,32.29
2018-06-09T10:32:51.395Z,35.11
2018-06-09T10:35:20.704Z,32.41
2018-06-09T10:37:50.036Z,38.82
2018-06-09T10:40:19.216Z,36.48
2018-06-09T10:42:48.388Z,35.87
2018-06-09T10:45:17.628Z,36.30
2018-06-09T10:47:46.948Z,33.31
2018-06-09T10:50:16.125Z,35.92
2018-06-09T10:52:44.473Z,35.58
2018-06-09T10:55:13.662Z,35.89
2018-06-09T10:57:42.016Z,33.45
2018-06-09T11:00:11.429Z,33.74
2018-06-09T11:02:39.777Z,36.01
2018-06-09T11:05:09.057Z,36.44
2018-06-09T11:07:37.372Z,35.55
2018-06-09T11:10:05.899Z,35.10
2018-06-09T11:12:35.095Z,32.15
2018-06-09T11:15:04.339Z,35.73
2018-06-09T11:17:33.591Z,33.59
2018-06-09T11:20:02.941Z,35.78
2018-06-09T11:22:31.307Z,35.82
2018-06-09T11:25:00.528Z,31.86
2018-06-09T11:27:29.831Z,34.21
2018-06-09T11:29:58.144Z,33.79
2018-06-09T11:32:26.461Z,34.39
2018-06-09T11:34:54.774Z,34.89
2018-06-09T11:37:23.097Z,35.29
2018-06-09T11:39:51.417Z,34.87
2018-06-09T11:42:19.724Z,35.90
2018-06-09T11:44:48.032Z,37.58
2018-06-09T11:47:16.340Z,36.51
2018-06-09T11:49:44.649Z,33.69
2018-06-09T11:52:12.961Z,33.83
2018-06-09T11:54:41.281Z,35.47
2018-06-09T11:57:09.857Z,33.42
2018-06-09T11:59:42.797Z,35.15
2018-06-09T12:02:11.162Z,34.79
2018-06-09T12:04:39.480Z,34.01
2018-06-09T12:07:07.794Z,35.26
2018-06-09T12:09:36.139Z,33.84
2018-06-09T12:12:04.465Z,35.46
2018-06-09T12:14:33.789Z,34.68
2018-06-09T12:17:02.966Z,32.55
2018-06-09T12:19:32.185Z,36.58
2018-06-09T12:22:01.383Z,33.83
2018-06-09T12:24:29.690Z,32.47
2018-06-09T12:26:58.065Z,33.64
2018-06-09T12:29:26.372Z,32.33
2018-06-09T12:31:54.713Z,31.29
2018-06-09T12:34:23.041Z,33.12
2018-06-09T12:36:51.353Z,31.29
2018-06-09T12:39:19.686Z,32.87
2018-06-09T12:41:48.025Z,30.72
2018-06-09T12:44:16.371Z,30.05
2018-06-09T12:46:44.721Z,32.55
2018-06-09T12:49:13.036Z,32.72
2018-06-09T12:51:41.390Z,30.23
2018-06-09T12:54:09.751Z,32.27
2018-06-09T12:56:38.956Z,30.67
2018-06-09T12:59:07.279Z,30.98
2018-06-09T13:01:35.594Z,30.02
2018-06-09T13:04:03.948Z,30.28
2018-06-09T13:06:32.288Z,30.74
2018-06-09T13:09:00.644Z,32.00
2018-06-09T13:11:29.009Z,29.64
2018-06-09T13:13:57.417Z,28.28
2018-06-09T13:16:25.722Z,30.62
2018-06-09T13:18:54.039Z,30.35
2018-06-09T13:21:22.360Z,30.35
2018-06-09T13:23:51.568Z,31.70
2018-06-09T13:26:20.900Z,32.46
2018-06-09T13:28:49.216Z,32.67
2018-06-09T13:31:17.545Z,30.83
2018-06-09T13:33:45.898Z,31.30
2018-06-09T13:36:14.214Z,30.44
2018-06-09T13:38:42.622Z,28.72
2018-06-09T13:41:11.812Z,30.28
2018-06-09T13:43:41.044Z,29.70
2018-06-09T13:46:10.157Z,31.15
2018-06-09T13:48:39.520Z,30.46
2018-06-09T13:51:08.888Z,31.02
2018-06-09T13:53:38.209Z,32.25
2018-06-09T13:56:06.566Z,32.29
2018-06-09T13:58:35.880Z,31.68
2018-06-09T14:01:05.236Z,31.50
2018-06-09T14:03:33.548Z,30.29
2018-06-09T14:06:03.725Z,31.47
2018-06-09T14:08:33.028Z,29.75
2018-06-09T14:11:02.232Z,28.58
2018-06-09T14:13:31.553Z,28.15
2018-06-09T14:16:00.856Z,27.51
2018-06-09T14:18:30.217Z,27.55
2018-06-09T14:20:58.537Z,26.57
2018-06-09T14:23:27.717Z,29.09
2018-06-09T14:25:56.048Z,31.05
2018-06-09T14:28:24.367Z,30.34
2018-06-09T14:30:52.685Z,27.97
2018-06-09T14:33:21.016Z,29.40
2018-06-09T14:35:53.303Z,29.57
2018-06-09T14:38:21.614Z,29.28
2018-06-09T14:40:50.789Z,25.07
2018-06-09T14:43:19.104Z,27.78
2018-06-09T14:45:47.430Z,23.63
2018-06-09T14:48:15.751Z,26.75
2018-06-09T14:50:44.074Z,25.19
2018-06-09T14:53:12.400Z,24.57
2018-06-09T14:55:40.713Z,26.41
2018-06-09T14:58:09.029Z,27.16
2018-06-09T15:00:37.335Z,27.77
2018-06-09T15:03:05.652Z,25.22
2018-06-09T15:05:33.980Z,23.75
2018-06-09T15:08:02.336Z,25.90
2018-06-09T15:10:30.665Z,25.13
2018-06-09T15:12:58.969Z,25.95
2018-06-09T15:15:27.328Z,23.71
2018-06-09T15:17:55.636Z,21.76
2018-06-09T15:20:23.964Z,22.87
2018-06-09T15:22:52.280Z,23.57
2018-06-09T15:25:20.595Z,24.04
2018-06-09T15:27:48.910Z,21.45
2018-06-09T15:30:17.227Z,23.11
2018-06-09T15:32:45.551Z,22.59
2018-06-09T15:35:13.915Z,24.89
2018-06-09T15:37:42.220Z,25.11
2018-06-09T15:40:10.549Z,24.61
2018-06-09T15:42:38.861Z,23.60
2018-06-09T15:45:07.174Z,24.48
2018-06-09T15:47:35.484Z,25.86
2018-06-09T15:50:03.853Z,27.01
2018-06-09T15:52:32.175Z,27.32
2018-06-09T15:55:00.496Z,28.15
2018-06-09T15:57:28.820Z,28.63
2018-06-09T15:59:58.096Z,30.89
2018-06-09T16:02:26.853Z,31.02
2018-06-09T16:04:55.188Z,30.21
2018-06-09T16:07:23.545Z,28.85
2018-06-09T16:09:51.906Z,29.03
2018-06-09T16:12:20.218Z,31.01
2018-06-09T16:14:48.633Z,31.80
2018-06-09T16:17:16.930Z,30.99
2018-06-09T16:19:45.250Z,31.82
2018-06-09T16:22:14.394Z,33.67
2018-06-09T16:24:42.753Z,32.25
2018-06-09T16:27:11.065Z,31.31
2018-06-09T16:29:39.372Z,32.46
2018-06-09T16:32:07.681Z,32.26
2018-06-09T16:34:35.999Z,32.67
2018-06-09T16:37:04.304Z,33.23
2018-06-09T16:39:32.614Z,32.59
2018-06-09T16:42:00.925Z,33.15
2018-06-09T16:44:29.232Z,32.01
2018-06-09T16:46:57.546Z,31.87
2018-06-09T16:49:25.863Z,33.14
2018-06-09T16:51:54.206Z,33.99
2018-06-09T16:54:22.518Z,34.51
2018-06-09T16:56:51.699Z,32.10
2018-06-09T16:59:20.020Z,33.04
2018-06-09T17:01:48.339Z,33.90
2018-06-09T17:04:16.652Z,33.21
2018-06-09T17:06:44.973Z,32.92
2018-06-09T17:09:14.336Z,35.24
2018-06-09T17:11:42.653Z,37.50
2018-06-09T17:14:10.974Z,40.74
2018-06-09T17:16:39.286Z,46.97
2018-06-09T17:19:07.597Z,47.79
2018-06-09T17:21:35.914Z,48.97
2018-06-09T17:24:04.238Z,50.19
2018-06-09T17:26:33.552Z,49.49
2018-06-09T17:29:02.913Z,50.40
2018-06-09T17:31:32.238Z,50.47
2018-06-09T17:34:01.545Z,50.76
2018-06-09T17:36:30.880Z,52.29
2018-06-09T17:39:00.109Z,53.00
2018-06-09T17:41:29.429Z,52.51
2018-06-09T17:43:57.807Z,53.08
2018-06-09T17:46:26.128Z,54.21
2018-06-09T17:48:55.306Z,54.89
2018-06-09T17:51:23.621Z,54.87
2018-06-09T17:53:51.940Z,53.79
2018-06-09T17:56:21.155Z,55.58
2018-06-09T17:58:50.360Z,56.21
2018-06-09T18:01:18.677Z,58.06
2018-06-09T18:03:47.063Z,58.09
2018-06-09T18:06:16.269Z,58.12
2018-06-09T18:08:44.576Z,57.61
2018-06-09T18:11:12.920Z,58.72
2018-06-09T18:13:42.110Z,58.75
2018-06-09T18:16:10.421Z,59.64
2018-06-09T18:18:38.723Z,58.61
2018-06-09T18:21:07.037Z,59.22
2018-06-09T18:23:36.241Z,59.61
2018-06-09T18:26:04.568Z,60.62
2018-06-09T18:28:32.870Z,60.68
2018-06-09T18:31:02.088Z,61.11
2018-06-09T18:33:30.436Z,62.15
2018-06-09T18:35:59.630Z,62.81
2018-06-09T18:38:27.945Z,63.34
2018-06-09T18:40:57.260Z,62.91
2018-06-09T18:43:26.574Z,63.46
2018-06-09T18:45:55.708Z,63.90
2018-06-09T18:48:24.892Z,63.92
2018-06-09T18:50:54.154Z,63.08
2018-06-09T18:53:23.341Z,63.96
2018-06-09T18:55:51.709Z,63.67
2018-06-09T18:58:20.020Z,64.32
2018-06-09T19:00:49.293Z,64.83
2018-06-09T19:03:18.528Z,64.81
2018-06-09T19:05:46.873Z,65.43
2018-06-09T19:08:16.056Z,65.11
2018-06-09T19:10:44.373Z,64.56
2018-06-09T19:13:13.695Z,64.79
2018-06-09T19:15:43.006Z,64.73
2018-06-09T19:18:12.340Z,65.00
2018-06-09T19:20:40.700Z,66.18
2018-06-09T19:23:09.888Z,66.62
2018-06-09T19:25:39.211Z,67.70
2018-06-09T19:28:07.521Z,67.96
2018-06-09T19:30:35.831Z,67.93
2018-06-09T19:33:04.951Z,68.87
2018-06-09T19:35:34.146Z,70.13
2018-06-09T19:38:03.338Z,69.10
2018-06-09T19:40:31.654Z,69.92
2018-06-09T19:42:59.965Z,70.34
2018-06-09T19:45:28.283Z,69.56
2018-06-09T19:47:56.597Z,70.71
2018-06-09T19:50:25.793Z,70.99
2018-06-09T19:52:54.123Z,70.75
2018-06-09T19:55:22.445Z,71.22
2018-06-09T19:57:50.762Z,70.87
2018-06-09T20:00:19.997Z,72.66
2018-06-09T20:02:48.401Z,73.92
2018-06-09T20:05:16.758Z,73.39
2018-06-09T20:07:45.061Z,74.16
2018-06-09T20:10:13.381Z,74.42
2018-06-09T20:12:41.691Z,74.79
2018-06-09T20:15:10.054Z,74.45
2018-06-09T20:17:38.384Z,75.31
2018-06-09T20:20:06.702Z,75.09
2018-06-09T20:22:35.017Z,73.37
2018-06-09T20:25:03.381Z,74.03
2018-06-09T20:27:31.746Z,73.81
2018-06-09T20:30:00.071Z,74.91
2018-06-09T20:32:28.416Z,76.34
2018-06-09T20:34:56.753Z,75.75
2018-06-09T20:37:25.115Z,77.10
2018-06-09T20:39:53.449Z,77.06
2018-06-09T20:42:22.689Z,77.36
2018-06-09T20:44:51.017Z,78.49
2018-06-09T20:47:20.240Z,78.65
2018-06-09T20:49:49.425Z,79.95
2018-06-09T20:52:18.658Z,80.18
2018-06-09T20:54:47.861Z,79.13
2018-06-09T20:57:17.173Z,78.73
2018-06-09T20:59:46.426Z,79.21
2018-06-09T21:02:15.614Z,79.00
2018-06-09T21:04:44.797Z,78.53
2018-06-09T21:07:13.153Z,77.86
2018-06-09T21:09:41.471Z,78.29
2018-06-09T21:12:10.826Z,78.70
2018-06-09T21:14:40.054Z,78.80
2018-06-09T21:17:09.284Z,79.35
2018-06-09T21:19:38.494Z,79.80
2018-06-09T21:22:06.800Z,79.94
2018-06-09T21:24:36.001Z,80.18
2018-06-09T21:27:09.521Z,80.18
2018-06-09T21:29:43.944Z,80.60
2018-06-09T21:32:16.521Z,80.65
2018-06-09T21:35:01.305Z,81.25
2018-06-09T21:37:35.621Z,80.55
2018-06-09T21:40:09.341Z,79.93
2018-06-09T21:42:41.853Z,80.19
2018-06-09T21:45:11.757Z,81.59
2018-06-09T21:47:40.953Z,82.43
2018-06-09T21:50:09.260Z,83.21
2018-06-09T21:52:37.625Z,82.37
2018-06-09T21:55:06.802Z,82.59
2018-06-09T21:57:35.111Z,83.65
2018-06-09T22:00:05.981Z,83.10
2018-06-09T22:02:35.408Z,84.42
2018-06-09T22:05:03.770Z,83.93
2018-06-09T22:07:32.084Z,84.29
2018-06-09T22:10:01.394Z,84.09
2018-06-09T22:12:29.761Z,85.09
2018-06-09T22:14:59.009Z,84.29
2018-06-09T22:17:28.314Z,84.48
2018-06-09T22:19:57.536Z,85.09
2018-06-09T22:22:25.881Z,84.15
2018-06-09T22:24:54.250Z,85.26
2018-06-09T22:27:23.448Z,84.99
2018-06-09T22:29:51.771Z,85.56
2018-06-09T22:32:20.246Z,85.74
2018-06-09T22:34:48.556Z,85.64
2018-06-09T22:37:16.873Z,87.34
2018-06-09T22:39:45.189Z,87.34
2018-06-09T22:42:13.499Z,87.07
2018-06-09T22:44:41.810Z,87.19
2018-06-09T22:47:10.139Z,86.49
2018-06-09T22:49:38.453Z,88.21
2018-06-09T22:52:06.764Z,88.67
2018-06-09T22:54:36.090Z,89.25
2018-06-09T22:57:04.397Z,88.46
2018-06-09T22:59:33.637Z,89.36
2018-06-09T23:02:01.951Z,90.00
2018-06-09T23:04:30.249Z,90.13
2018-06-09T23:06:58.558Z,90.60
2018-06-09T23:09:26.874Z,92.22
2018-06-09T23:11:55.212Z,93.04
2018-06-09T23:14:23.525Z,93.14
2018-06-09T23:16:51.844Z,91.90
2018-06-09T23:19:20.160Z,92.41
2018-06-09T23:21:48.473Z,91.58
2018-06-09T23:24:16.776Z,91.47
2018-06-09T23:26:45.992Z,91.26
2018-06-09T23:29:14.298Z,91.57
2018-06-09T23:31:42.613Z,90.87
2018-06-09T23:34:10.917Z,90.62
2018-06-09T23:36:39.225Z,90.32
2018-06-09T23:39:07.811Z,90.46
2018-06-09T23:41:36.136Z,90.39
2018-06-09T23:44:04.449Z,90.38
2018-06-09T23:46:32.837Z,90.56
2018-06-09T23:49:01.113Z,91.33
2018-06-09T23:51:29.477Z,91.43
2018-06-09T23:53:57.792Z,91.27
2018-06-09T23:56:27.104Z,91.14
2018-06-09T23:58:55.427Z,92.11
